sensor_id;sensor_type;location;lat;lon;timestamp;temperature;humidity
29777;DHT22;16677;52.224;7.484;2023-03-12T00:00:08;0.30;99.90
29777;DHT22;16677;52.224;7.484;2023-03-12T00:02:37;0.30;99.90
29777;DHT22;16677;52.224;7.484;2023-03-12T00:05:07;0.30;1.00
29777;DHT22;16677;52.224;7.484;2023-03-12T00:07:35;0.20;1.00
29777;DHT22;16677;52.224;7.484;2023-03-12T00:10:03;0.30;1.00
29777;DHT22;16677;52.224;7.484;2023-03-12T00:12:33;0.30;1.00
29777;DHT22;16677;52.224;7.484;2023-03-12T00:15:00;0.30;1.00
29777;DHT22;16677;52.224;7.484;2023-03-12T00:17:28;0.30;1.00
29777;DHT22;16677;52.224;7.484;2023-03-12T00:19:55;0.30;1.00
29777;DHT22;16677;52.224;7.484;2023-03-12T00:22:23;0.30;1.00
29777;DHT22;16677;52.224;7.484;2023-03-12T00:24:51;0.30;1.00
29777;DHT22;16677;52.224;7.484;2023-03-12T00:27:19;0.30;1.00
29777;DHT22;16677;52.224;7.484;2023-03-12T00:29:48;0.20;1.00
29777;DHT22;16677;52.224;7.484;2023-03-12T00:32:15;0.30;77.60
29777;DHT22;16677;52.224;7.484;2023-03-12T00:34:42;0.20;52.00
29777;DHT22;16677;52.224;7.484;2023-03-12T00:37:09;0.20;1.00
29777;DHT22;16677;52.224;7.484;2023-03-12T00:39:36;0.20;3.10
29777;DHT22;16677;52.224;7.484;2023-03-12T00:42:04;0.30;96.90
29777;DHT22;16677;52.224;7.484;2023-03-12T00:44:31;0.30;95.60
29777;DHT22;16677;52.224;7.484;2023-03-12T00:46:58;0.30;19.20
29777;DHT22;16677;52.224;7.484;2023-03-12T00:49:27;0.30;16.20
29777;DHT22;16677;52.224;7.484;2023-03-12T00:51:54;0.40;1.00
29777;DHT22;16677;52.224;7.484;2023-03-12T00:54:21;0.30;1.00
29777;DHT22;16677;52.224;7.484;2023-03-12T00:56:48;0.30;1.00
29777;DHT22;16677;52.224;7.484;2023-03-12T00:59:15;0.20;99.90
29777;DHT22;16677;52.224;7.484;2023-03-12T01:01:43;0.10;99.90
29777;DHT22;16677;52.224;7.484;2023-03-12T01:04:19;0.10;99.90
29777;DHT22;16677;52.224;7.484;2023-03-12T01:06:47;0.00;99.90
29777;DHT22;16677;52.224;7.484;2023-03-12T01:09:14;0.00;99.90
29777;DHT22;16677;52.224;7.484;2023-03-12T01:11:44;-0.10;99.90
29777;DHT22;16677;52.224;7.484;2023-03-12T01:14:11;-0.30;99.90
29777;DHT22;16677;52.224;7.484;2023-03-12T01:16:38;-0.40;99.90
29777;DHT22;16677;52.224;7.484;2023-03-12T01:19:07;-0.40;99.90
29777;DHT22;16677;52.224;7.484;2023-03-12T01:21:37;-0.30;99.90
29777;DHT22;16677;52.224;7.484;2023-03-12T01:24:06;-0.20;1.00
29777;DHT22;16677;52.224;7.484;2023-03-12T01:26:33;-0.20;1.00
29777;DHT22;16677;52.224;7.484;2023-03-12T01:29:03;-0.20;1.00
29777;DHT22;16677;52.224;7.484;2023-03-12T01:31:32;-0.10;1.00
29777;DHT22;16677;52.224;7.484;2023-03-12T01:34:02;-0.20;1.00
29777;DHT22;16677;52.224;7.484;2023-03-12T01:36:30;-0.20;1.00
29777;DHT22;16677;52.224;7.484;2023-03-12T01:39:00;-0.10;81.80
29777;DHT22;16677;52.224;7.484;2023-03-12T01:41:28;0.00;99.90
29777;DHT22;16677;52.224;7.484;2023-03-12T01:43:58;-0.10;30.40
29777;DHT22;16677;52.224;7.484;2023-03-12T01:46:34;-0.10;99.90
29777;DHT22;16677;52.224;7.484;2023-03-12T01:52:03;-0.10;99.90
29777;DHT22;16677;52.224;7.484;2023-03-12T01:54:39;-0.20;92.70
29777;DHT22;16677;52.224;7.484;2023-03-12T01:57:12;-0.10;99.90
29777;DHT22;16677;52.224;7.484;2023-03-12T01:59:42;-0.10;99.90
29777;DHT22;16677;52.224;7.484;2023-03-12T02:02:13;0.00;98.40
29777;DHT22;16677;52.224;7.484;2023-03-12T02:04:41;-0.10;1.00
29777;DHT22;16677;52.224;7.484;2023-03-12T02:07:10;0.10;37.70
29777;DHT22;16677;52.224;7.484;2023-03-12T02:09:39;0.10;1.00
29777;DHT22;16677;52.224;7.484;2023-03-12T02:12:08;0.20;1.00
29777;DHT22;16677;52.224;7.484;2023-03-12T02:14:35;0.30;1.00
29777;DHT22;16677;52.224;7.484;2023-03-12T02:17:03;0.30;1.00
29777;DHT22;16677;52.224;7.484;2023-03-12T02:19:40;0.30;1.00
29777;DHT22;16677;52.224;7.484;2023-03-12T02:22:12;0.50;1.00
29777;DHT22;16677;52.224;7.484;2023-03-12T02:24:43;0.30;99.90
29777;DHT22;16677;52.224;7.484;2023-03-12T02:27:14;0.20;99.90
29777;DHT22;16677;52.224;7.484;2023-03-12T02:29:43;0.20;14.30
29777;DHT22;16677;52.224;7.484;2023-03-12T02:32:19;0.20;1.00
29777;DHT22;16677;52.224;7.484;2023-03-12T02:34:48;0.20;10.70
29777;DHT22;16677;52.224;7.484;2023-03-12T02:37:16;0.20;1.00
29777;DHT22;16677;52.224;7.484;2023-03-12T02:39:56;0.30;6.70
29777;DHT22;16677;52.224;7.484;2023-03-12T02:42:26;0.20;1.00
29777;DHT22;16677;52.224;7.484;2023-03-12T02:44:57;0.20;1.00
29777;DHT22;16677;52.224;7.484;2023-03-12T02:47:25;0.20;1.00
29777;DHT22;16677;52.224;7.484;2023-03-12T02:49:52;0.20;1.00
29777;DHT22;16677;52.224;7.484;2023-03-12T02:52:20;0.20;1.00
29777;DHT22;16677;52.224;7.484;2023-03-12T02:54:49;0.30;1.00
29777;DHT22;16677;52.224;7.484;2023-03-12T02:57:18;0.30;1.00
29777;DHT22;16677;52.224;7.484;2023-03-12T02:59:45;0.30;1.00
29777;DHT22;16677;52.224;7.484;2023-03-12T03:02:15;0.40;1.00
29777;DHT22;16677;52.224;7.484;2023-03-12T03:04:41;0.40;1.00
29777;DHT22;16677;52.224;7.484;2023-03-12T03:07:08;0.40;1.00
29777;DHT22;16677;52.224;7.484;2023-03-12T03:09:38;0.50;1.00
29777;DHT22;16677;52.224;7.484;2023-03-12T03:12:06;0.50;99.90
29777;DHT22;16677;52.224;7.484;2023-03-12T03:14:33;0.50;99.90
29777;DHT22;16677;52.224;7.484;2023-03-12T03:17:00;0.50;99.90
29777;DHT22;16677;52.224;7.484;2023-03-12T03:19:27;0.50;99.90
29777;DHT22;16677;52.224;7.484;2023-03-12T03:21:55;0.50;99.90
29777;DHT22;16677;52.224;7.484;2023-03-12T03:24:22;0.50;99.90
29777;DHT22;16677;52.224;7.484;2023-03-12T03:26:49;0.50;99.90
29777;DHT22;16677;52.224;7.484;2023-03-12T03:29:17;0.50;99.90
29777;DHT22;16677;52.224;7.484;2023-03-12T03:31:44;0.60;99.90
29777;DHT22;16677;52.224;7.484;2023-03-12T03:34:11;0.60;99.90
29777;DHT22;16677;52.224;7.484;2023-03-12T03:36:40;0.70;91.60
29777;DHT22;16677;52.224;7.484;2023-03-12T03:39:06;0.80;32.60
29777;DHT22;16677;52.224;7.484;2023-03-12T03:41:33;0.90;1.00
29777;DHT22;16677;52.224;7.484;2023-03-12T03:44:01;0.90;1.00
29777;DHT22;16677;52.224;7.484;2023-03-12T03:46:28;0.90;1.00
29777;DHT22;16677;52.224;7.484;2023-03-12T03:48:56;0.90;1.00
29777;DHT22;16677;52.224;7.484;2023-03-12T03:51:23;1.00;1.00
29777;DHT22;16677;52.224;7.484;2023-03-12T03:53:50;0.90;1.00
29777;DHT22;16677;52.224;7.484;2023-03-12T03:56:18;1.00;1.00
29777;DHT22;16677;52.224;7.484;2023-03-12T03:58:45;1.00;1.00
29777;DHT22;16677;52.224;7.484;2023-03-12T04:01:13;1.10;1.00
29777;DHT22;16677;52.224;7.484;2023-03-12T04:03:40;1.10;1.00
29777;DHT22;16677;52.224;7.484;2023-03-12T04:06:08;1.20;1.00
29777;DHT22;16677;52.224;7.484;2023-03-12T04:08:36;1.20;1.00
29777;DHT22;16677;52.224;7.484;2023-03-12T04:11:15;1.20;1.00
29777;DHT22;16677;52.224;7.484;2023-03-12T04:13:44;1.20;1.00
29777;DHT22;16677;52.224;7.484;2023-03-12T04:16:12;1.20;1.00
29777;DHT22;16677;52.224;7.484;2023-03-12T04:18:40;1.10;1.00
29777;DHT22;16677;52.224;7.484;2023-03-12T04:21:12;1.20;1.00
29777;DHT22;16677;52.224;7.484;2023-03-12T04:23:39;1.10;1.00
29777;DHT22;16677;52.224;7.484;2023-03-12T04:26:07;1.20;1.00
29777;DHT22;16677;52.224;7.484;2023-03-12T04:28:35;1.20;1.00
29777;DHT22;16677;52.224;7.484;2023-03-12T04:31:06;1.20;1.00
29777;DHT22;16677;52.224;7.484;2023-03-12T04:33:36;1.10;1.00
29777;DHT22;16677;52.224;7.484;2023-03-12T04:36:05;1.10;1.00
29777;DHT22;16677;52.224;7.484;2023-03-12T04:38:33;1.10;1.00
29777;DHT22;16677;52.224;7.484;2023-03-12T04:41:07;1.10;1.00
29777;DHT22;16677;52.224;7.484;2023-03-12T04:43:35;1.10;1.00
29777;DHT22;16677;52.224;7.484;2023-03-12T04:46:03;1.10;1.00
29777;DHT22;16677;52.224;7.484;2023-03-12T04:48:32;1.10;1.00
29777;DHT22;16677;52.224;7.484;2023-03-12T04:51:21;1.10;1.00
29777;DHT22;16677;52.224;7.484;2023-03-12T04:53:48;1.10;1.00
29777;DHT22;16677;52.224;7.484;2023-03-12T04:56:15;1.10;1.00
29777;DHT22;16677;52.224;7.484;2023-03-12T04:58:42;1.10;1.00
29777;DHT22;16677;52.224;7.484;2023-03-12T05:01:24;1.10;1.00
29777;DHT22;16677;52.224;7.484;2023-03-12T05:03:53;1.10;1.00
29777;DHT22;16677;52.224;7.484;2023-03-12T05:06:24;1.10;1.00
29777;DHT22;16677;52.224;7.484;2023-03-12T05:08:54;1.10;1.00
29777;DHT22;16677;52.224;7.484;2023-03-12T05:11:21;1.10;1.00
29777;DHT22;16677;52.224;7.484;2023-03-12T05:13:49;1.10;1.00
29777;DHT22;16677;52.224;7.484;2023-03-12T05:16:16;1.10;1.00
29777;DHT22;16677;52.224;7.484;2023-03-12T05:18:44;1.10;1.00
29777;DHT22;16677;52.224;7.484;2023-03-12T05:21:17;1.10;1.00
29777;DHT22;16677;52.224;7.484;2023-03-12T05:23:45;1.20;1.00
29777;DHT22;16677;52.224;7.484;2023-03-12T05:26:21;1.20;1.00
29777;DHT22;16677;52.224;7.484;2023-03-12T05:28:50;1.20;1.00
29777;DHT22;16677;52.224;7.484;2023-03-12T05:31:18;1.20;1.00
29777;DHT22;16677;52.224;7.484;2023-03-12T05:33:49;1.30;99.90
29777;DHT22;16677;52.224;7.484;2023-03-12T05:36:18;1.30;1.00
29777;DHT22;16677;52.224;7.484;2023-03-12T05:38:46;1.30;1.00
29777;DHT22;16677;52.224;7.484;2023-03-12T05:41:20;1.30;1.00
29777;DHT22;16677;52.224;7.484;2023-03-12T05:43:52;1.40;1.00
29777;DHT22;16677;52.224;7.484;2023-03-12T05:46:20;1.40;99.90
29777;DHT22;16677;52.224;7.484;2023-03-12T05:48:48;1.40;99.90
29777;DHT22;16677;52.224;7.484;2023-03-12T05:51:16;1.40;99.90
29777;DHT22;16677;52.224;7.484;2023-03-12T05:53:43;1.50;99.90
29777;DHT22;16677;52.224;7.484;2023-03-12T05:56:12;1.50;99.90
29777;DHT22;16677;52.224;7.484;2023-03-12T05:58:41;1.50;99.90
29777;DHT22;16677;52.224;7.484;2023-03-12T06:01:13;1.60;99.90
29777;DHT22;16677;52.224;7.484;2023-03-12T06:03:45;1.60;99.90
29777;DHT22;16677;52.224;7.484;2023-03-12T06:06:13;1.60;99.90
29777;DHT22;16677;52.224;7.484;2023-03-12T06:08:41;1.60;99.90
29777;DHT22;16677;52.224;7.484;2023-03-12T06:11:11;1.70;99.90
29777;DHT22;16677;52.224;7.484;2023-03-12T06:13:40;1.60;99.90
29777;DHT22;16677;52.224;7.484;2023-03-12T06:16:11;1.60;99.90
29777;DHT22;16677;52.224;7.484;2023-03-12T06:18:48;1.80;99.90
29777;DHT22;16677;52.224;7.484;2023-03-12T06:21:23;1.70;99.90
29777;DHT22;16677;52.224;7.484;2023-03-12T06:23:53;1.90;99.90
29777;DHT22;16677;52.224;7.484;2023-03-12T06:26:22;1.90;99.90
29777;DHT22;16677;52.224;7.484;2023-03-12T06:28:52;1.90;99.90
29777;DHT22;16677;52.224;7.484;2023-03-12T06:31:20;2.00;99.90
29777;DHT22;16677;52.224;7.484;2023-03-12T06:33:51;2.00;99.90
29777;DHT22;16677;52.224;7.484;2023-03-12T06:36:22;2.00;99.90
29777;DHT22;16677;52.224;7.484;2023-03-12T06:38:52;2.10;99.90
29777;DHT22;16677;52.224;7.484;2023-03-12T06:41:22;2.20;99.90
29777;DHT22;16677;52.224;7.484;2023-03-12T06:43:51;2.30;99.90
29777;DHT22;16677;52.224;7.484;2023-03-12T06:46:19;2.40;99.90
29777;DHT22;16677;52.224;7.484;2023-03-12T06:48:52;2.40;99.90
29777;DHT22;16677;52.224;7.484;2023-03-12T06:51:20;2.50;99.90
29777;DHT22;16677;52.224;7.484;2023-03-12T06:53:50;2.40;99.90
29777;DHT22;16677;52.224;7.484;2023-03-12T06:56:20;2.50;99.90
29777;DHT22;16677;52.224;7.484;2023-03-12T06:58:48;2.50;99.90
29777;DHT22;16677;52.224;7.484;2023-03-12T07:01:17;2.40;99.90
29777;DHT22;16677;52.224;7.484;2023-03-12T07:03:46;2.30;99.90
29777;DHT22;16677;52.224;7.484;2023-03-12T07:06:20;2.20;99.90
29777;DHT22;16677;52.224;7.484;2023-03-12T07:08:48;2.20;99.90
29777;DHT22;16677;52.224;7.484;2023-03-12T07:11:19;2.10;99.90
29777;DHT22;16677;52.224;7.484;2023-03-12T07:13:48;2.20;99.90
29777;DHT22;16677;52.224;7.484;2023-03-12T07:16:15;2.20;99.90
29777;DHT22;16677;52.224;7.484;2023-03-12T07:18:44;2.20;99.90
29777;DHT22;16677;52.224;7.484;2023-03-12T07:21:13;2.30;99.90
29777;DHT22;16677;52.224;7.484;2023-03-12T07:23:48;2.40;99.90
29777;DHT22;16677;52.224;7.484;2023-03-12T07:26:17;2.50;99.90
29777;DHT22;16677;52.224;7.484;2023-03-12T07:28:46;2.60;99.90
29777;DHT22;16677;52.224;7.484;2023-03-12T07:31:13;2.80;99.90
29777;DHT22;16677;52.224;7.484;2023-03-12T07:33:41;2.90;99.90
29777;DHT22;16677;52.224;7.484;2023-03-12T07:36:08;3.00;99.90
29777;DHT22;16677;52.224;7.484;2023-03-12T07:38:37;3.00;99.90
29777;DHT22;16677;52.224;7.484;2023-03-12T07:41:07;3.00;99.90
29777;DHT22;16677;52.224;7.484;2023-03-12T07:43:35;3.00;99.90
29777;DHT22;16677;52.224;7.484;2023-03-12T07:46:04;3.00;99.90
29777;DHT22;16677;52.224;7.484;2023-03-12T07:48:31;2.90;99.90
29777;DHT22;16677;52.224;7.484;2023-03-12T07:50:58;2.90;99.90
29777;DHT22;16677;52.224;7.484;2023-03-12T07:53:25;3.00;99.90
29777;DHT22;16677;52.224;7.484;2023-03-12T07:55:53;3.10;99.90
29777;DHT22;16677;52.224;7.484;2023-03-12T07:58:20;3.10;99.90
29777;DHT22;16677;52.224;7.484;2023-03-12T08:00:48;3.20;99.90
29777;DHT22;16677;52.224;7.484;2023-03-12T08:03:15;3.30;99.90
29777;DHT22;16677;52.224;7.484;2023-03-12T08:05:54;3.40;99.90
29777;DHT22;16677;52.224;7.484;2023-03-12T08:08:24;3.30;99.90
29777;DHT22;16677;52.224;7.484;2023-03-12T08:10:52;3.40;99.90
29777;DHT22;16677;52.224;7.484;2023-03-12T08:13:20;3.40;99.90
29777;DHT22;16677;52.224;7.484;2023-03-12T08:15:50;3.50;99.90
29777;DHT22;16677;52.224;7.484;2023-03-12T08:18:18;3.30;99.90
29777;DHT22;16677;52.224;7.484;2023-03-12T08:20:48;3.40;99.90
29777;DHT22;16677;52.224;7.484;2023-03-12T08:23:17;3.50;99.90
29777;DHT22;16677;52.224;7.484;2023-03-12T08:25:46;3.40;99.90
29777;DHT22;16677;52.224;7.484;2023-03-12T08:28:14;3.40;99.90
29777;DHT22;16677;52.224;7.484;2023-03-12T08:30:51;3.40;99.90
29777;DHT22;16677;52.224;7.484;2023-03-12T08:33:19;3.40;99.90
29777;DHT22;16677;52.224;7.484;2023-03-12T08:35:50;3.40;99.90
29777;DHT22;16677;52.224;7.484;2023-03-12T08:38:20;3.30;99.90
29777;DHT22;16677;52.224;7.484;2023-03-12T08:40:53;3.30;1.00
29777;DHT22;16677;52.224;7.484;2023-03-12T08:43:24;3.30;1.00
29777;DHT22;16677;52.224;7.484;2023-03-12T08:45:57;3.30;1.00
29777;DHT22;16677;52.224;7.484;2023-03-12T08:48:29;3.20;1.00
29777;DHT22;16677;52.224;7.484;2023-03-12T08:51:11;3.20;1.00
29777;DHT22;16677;52.224;7.484;2023-03-12T08:53:59;3.30;1.00
29777;DHT22;16677;52.224;7.484;2023-03-12T08:56:41;3.20;1.00
29777;DHT22;16677;52.224;7.484;2023-03-12T08:59:24;3.30;1.00
29777;DHT22;16677;52.224;7.484;2023-03-12T09:01:54;3.20;1.00
29777;DHT22;16677;52.224;7.484;2023-03-12T09:04:28;3.20;24.90
29777;DHT22;16677;52.224;7.484;2023-03-12T09:07:07;3.10;87.20
29777;DHT22;16677;52.224;7.484;2023-03-12T09:09:39;3.10;99.90
29777;DHT22;16677;52.224;7.484;2023-03-12T09:12:31;3.10;99.90
29777;DHT22;16677;52.224;7.484;2023-03-12T09:14:59;3.10;99.90
29777;DHT22;16677;52.224;7.484;2023-03-12T09:17:43;3.20;99.90
29777;DHT22;16677;52.224;7.484;2023-03-12T09:20:12;3.20;99.90
29777;DHT22;16677;52.224;7.484;2023-03-12T09:22:42;3.20;99.90
29777;DHT22;16677;52.224;7.484;2023-03-12T09:25:26;3.30;1.00
29777;DHT22;16677;52.224;7.484;2023-03-12T09:28:14;3.30;99.90
29777;DHT22;16677;52.224;7.484;2023-03-12T09:30:44;3.20;1.00
29777;DHT22;16677;52.224;7.484;2023-03-12T09:33:29;3.30;1.00
29777;DHT22;16677;52.224;7.484;2023-03-12T09:36:05;3.50;1.00
29777;DHT22;16677;52.224;7.484;2023-03-12T09:38:36;3.60;1.00
29777;DHT22;16677;52.224;7.484;2023-03-12T09:41:11;3.60;1.00
29777;DHT22;16677;52.224;7.484;2023-03-12T09:43:51;3.70;1.00
29777;DHT22;16677;52.224;7.484;2023-03-12T09:46:42;3.70;1.00
29777;DHT22;16677;52.224;7.484;2023-03-12T09:52:19;3.70;1.00
29777;DHT22;16677;52.224;7.484;2023-03-12T09:57:35;3.70;1.00
29777;DHT22;16677;52.224;7.484;2023-03-12T10:00:03;3.70;31.00
29777;DHT22;16677;52.224;7.484;2023-03-12T10:02:51;3.50;99.90
29777;DHT22;16677;52.224;7.484;2023-03-12T10:05:25;3.60;1.00
29777;DHT22;16677;52.224;7.484;2023-03-12T10:08:26;3.60;37.70
29777;DHT22;16677;52.224;7.484;2023-03-12T10:11:20;3.60;1.00
29777;DHT22;16677;52.224;7.484;2023-03-12T10:14:24;3.70;1.00
29777;DHT22;16677;52.224;7.484;2023-03-12T10:23:16;3.70;1.00
29777;DHT22;16677;52.224;7.484;2023-03-12T10:26:09;3.50;1.00
29777;DHT22;16677;52.224;7.484;2023-03-12T10:35:02;3.50;99.90
29777;DHT22;16677;52.224;7.484;2023-03-12T10:38:13;3.60;1.00
29777;DHT22;16677;52.224;7.484;2023-03-12T10:40:55;3.60;99.90
29777;DHT22;16677;52.224;7.484;2023-03-12T10:43:22;3.80;99.90
29777;DHT22;16677;52.224;7.484;2023-03-12T10:49:26;3.80;99.90
29777;DHT22;16677;52.224;7.484;2023-03-12T10:52:09;3.80;99.90
29777;DHT22;16677;52.224;7.484;2023-03-12T10:54:47;3.80;99.90
29777;DHT22;16677;52.224;7.484;2023-03-12T10:57:24;3.80;99.90
29777;DHT22;16677;52.224;7.484;2023-03-12T11:00:06;4.00;99.90
29777;DHT22;16677;52.224;7.484;2023-03-12T11:02:46;3.50;1.00
29777;DHT22;16677;52.224;7.484;2023-03-12T11:05:32;3.90;15.40
29777;DHT22;16677;52.224;7.484;2023-03-12T11:10:44;3.90;99.90
29777;DHT22;16677;52.224;7.484;2023-03-12T11:16:02;4.00;99.90
29777;DHT22;16677;52.224;7.484;2023-03-12T11:18:57;4.10;99.90
29777;DHT22;16677;52.224;7.484;2023-03-12T11:21:33;4.20;99.90
29777;DHT22;16677;52.224;7.484;2023-03-12T11:24:11;4.20;99.90
29777;DHT22;16677;52.224;7.484;2023-03-12T11:29:33;4.40;99.90
29777;DHT22;16677;52.224;7.484;2023-03-12T11:32:09;4.40;99.90
29777;DHT22;16677;52.224;7.484;2023-03-12T11:34:40;4.40;99.90
29777;DHT22;16677;52.224;7.484;2023-03-12T11:52:01;5.00;99.90
29777;DHT22;16677;52.224;7.484;2023-03-12T12:01:16;5.10;99.90
29777;DHT22;16677;52.224;7.484;2023-03-12T12:30:04;5.90;99.90
29777;DHT22;16677;52.224;7.484;2023-03-12T12:35:44;6.10;99.90
29777;DHT22;16677;52.224;7.484;2023-03-12T12:41:25;6.30;99.90
29777;DHT22;16677;52.224;7.484;2023-03-12T12:44:13;6.40;99.90
29777;DHT22;16677;52.224;7.484;2023-03-12T12:46:48;6.50;99.90
29777;DHT22;16677;52.224;7.484;2023-03-12T12:52:05;6.70;99.90
29777;DHT22;16677;52.224;7.484;2023-03-12T12:54:50;6.70;99.90
29777;DHT22;16677;52.224;7.484;2023-03-12T12:58:00;6.80;99.90
29777;DHT22;16677;52.224;7.484;2023-03-12T13:00:44;6.90;99.90
29777;DHT22;16677;52.224;7.484;2023-03-12T13:03:21;7.00;99.90
29777;DHT22;16677;52.224;7.484;2023-03-12T13:05:59;7.10;99.90
29777;DHT22;16677;52.224;7.484;2023-03-12T13:16:37;7.30;99.90
29777;DHT22;16677;52.224;7.484;2023-03-12T13:22:20;7.40;99.90
29777;DHT22;16677;52.224;7.484;2023-03-12T13:25:13;7.50;99.90
29777;DHT22;16677;52.224;7.484;2023-03-12T13:27:45;7.70;99.90
29777;DHT22;16677;52.224;7.484;2023-03-12T13:35:35;7.70;99.90
29777;DHT22;16677;52.224;7.484;2023-03-12T13:38:13;7.70;99.90
29777;DHT22;16677;52.224;7.484;2023-03-12T13:43:50;7.80;99.90
29777;DHT22;16677;52.224;7.484;2023-03-12T13:46:28;7.90;99.90
29777;DHT22;16677;52.224;7.484;2023-03-12T13:49:04;8.00;99.90
29777;DHT22;16677;52.224;7.484;2023-03-12T13:52:19;8.00;99.90
29777;DHT22;16677;52.224;7.484;2023-03-12T13:55:24;8.00;99.90
29777;DHT22;16677;52.224;7.484;2023-03-12T13:58:17;8.00;99.90
29777;DHT22;16677;52.224;7.484;2023-03-12T14:01:04;8.00;99.90
29777;DHT22;16677;52.224;7.484;2023-03-12T14:03:41;7.90;99.90
29777;DHT22;16677;52.224;7.484;2023-03-12T14:06:20;8.00;99.90
29777;DHT22;16677;52.224;7.484;2023-03-12T14:09:14;8.10;99.90
29777;DHT22;16677;52.224;7.484;2023-03-12T14:17:26;8.30;99.90
29777;DHT22;16677;52.224;7.484;2023-03-12T14:20:11;8.30;99.90
29777;DHT22;16677;52.224;7.484;2023-03-12T14:22:49;8.40;99.90
29777;DHT22;16677;52.224;7.484;2023-03-12T14:27:54;8.40;99.90
29777;DHT22;16677;52.224;7.484;2023-03-12T14:30:30;8.40;99.90
29777;DHT22;16677;52.224;7.484;2023-03-12T14:33:04;8.60;99.90
29777;DHT22;16677;52.224;7.484;2023-03-12T14:35:48;8.50;99.90
29777;DHT22;16677;52.224;7.484;2023-03-12T14:38:25;8.40;99.90
29777;DHT22;16677;52.224;7.484;2023-03-12T14:43:43;8.50;99.90
29777;DHT22;16677;52.224;7.484;2023-03-12T14:46:23;8.60;99.90
29777;DHT22;16677;52.224;7.484;2023-03-12T14:48:51;8.50;99.90
29777;DHT22;16677;52.224;7.484;2023-03-12T14:51:25;8.60;99.90
29777;DHT22;16677;52.224;7.484;2023-03-12T14:53:55;8.70;99.90
29777;DHT22;16677;52.224;7.484;2023-03-12T14:56:28;8.80;99.90
29777;DHT22;16677;52.224;7.484;2023-03-12T14:59:00;9.00;99.90
29777;DHT22;16677;52.224;7.484;2023-03-12T15:01:33;9.00;99.90
29777;DHT22;16677;52.224;7.484;2023-03-12T15:04:11;9.20;99.90
29777;DHT22;16677;52.224;7.484;2023-03-12T15:06:54;9.10;99.90
29777;DHT22;16677;52.224;7.484;2023-03-12T15:09:27;9.20;99.90
29777;DHT22;16677;52.224;7.484;2023-03-12T15:12:00;9.20;99.90
29777;DHT22;16677;52.224;7.484;2023-03-12T15:14:32;9.30;99.90
29777;DHT22;16677;52.224;7.484;2023-03-12T15:17:19;9.30;99.90
29777;DHT22;16677;52.224;7.484;2023-03-12T15:19:48;9.40;99.90
29777;DHT22;16677;52.224;7.484;2023-03-12T15:22:20;9.50;99.90
29777;DHT22;16677;52.224;7.484;2023-03-12T15:24:50;9.50;99.90
29777;DHT22;16677;52.224;7.484;2023-03-12T15:29:55;9.70;99.90
29777;DHT22;16677;52.224;7.484;2023-03-12T15:32:25;9.80;99.90
29777;DHT22;16677;52.224;7.484;2023-03-12T15:34:55;9.80;91.30
29777;DHT22;16677;52.224;7.484;2023-03-12T15:37:31;9.80;1.00
29777;DHT22;16677;52.224;7.484;2023-03-12T15:40:19;9.80;1.00
29777;DHT22;16677;52.224;7.484;2023-03-12T15:42:49;9.90;1.00
29777;DHT22;16677;52.224;7.484;2023-03-12T15:45:26;9.90;1.00
29777;DHT22;16677;52.224;7.484;2023-03-12T15:47:57;9.90;1.00
29777;DHT22;16677;52.224;7.484;2023-03-12T15:50:40;10.00;1.00
29777;DHT22;16677;52.224;7.484;2023-03-12T15:58:44;9.90;99.90
29777;DHT22;16677;52.224;7.484;2023-03-12T16:01:13;10.00;99.90
29777;DHT22;16677;52.224;7.484;2023-03-12T16:03:44;10.00;1.00
29777;DHT22;16677;52.224;7.484;2023-03-12T16:06:13;10.00;99.90
29777;DHT22;16677;52.224;7.484;2023-03-12T16:08:44;9.90;99.90
29777;DHT22;16677;52.224;7.484;2023-03-12T16:11:32;10.00;1.00
29777;DHT22;16677;52.224;7.484;2023-03-12T16:16:40;10.00;1.00
29777;DHT22;16677;52.224;7.484;2023-03-12T16:19:16;10.10;99.90
29777;DHT22;16677;52.224;7.484;2023-03-12T16:21:46;10.00;1.00
29777;DHT22;16677;52.224;7.484;2023-03-12T16:24:13;10.00;99.90
29777;DHT22;16677;52.224;7.484;2023-03-12T16:26:48;10.00;99.90
29777;DHT22;16677;52.224;7.484;2023-03-12T16:29:19;10.00;99.90
29777;DHT22;16677;52.224;7.484;2023-03-12T16:31:52;10.00;33.40
29777;DHT22;16677;52.224;7.484;2023-03-12T16:34:28;10.00;1.00
29777;DHT22;16677;52.224;7.484;2023-03-12T16:36:55;10.00;1.00
29777;DHT22;16677;52.224;7.484;2023-03-12T16:39:23;10.00;99.90
29777;DHT22;16677;52.224;7.484;2023-03-12T16:41:51;10.00;99.90
29777;DHT22;16677;52.224;7.484;2023-03-12T16:44:20;10.00;99.90
29777;DHT22;16677;52.224;7.484;2023-03-12T16:46:49;10.00;99.90
29777;DHT22;16677;52.224;7.484;2023-03-12T16:49:18;9.90;99.90
29777;DHT22;16677;52.224;7.484;2023-03-12T16:51:49;10.00;1.00
29777;DHT22;16677;52.224;7.484;2023-03-12T16:54:16;10.00;1.00
29777;DHT22;16677;52.224;7.484;2023-03-12T16:56:45;9.90;99.90
29777;DHT22;16677;52.224;7.484;2023-03-12T16:59:26;9.90;1.00
29777;DHT22;16677;52.224;7.484;2023-03-12T17:01:58;9.90;75.90
29777;DHT22;16677;52.224;7.484;2023-03-12T17:07:01;9.90;99.90
29777;DHT22;16677;52.224;7.484;2023-03-12T17:09:28;9.80;1.00
29777;DHT22;16677;52.224;7.484;2023-03-12T17:11:55;9.70;1.00
29777;DHT22;16677;52.224;7.484;2023-03-12T17:14:23;9.40;1.00
29777;DHT22;16677;52.224;7.484;2023-03-12T17:16:50;9.60;1.00
29777;DHT22;16677;52.224;7.484;2023-03-12T17:19:18;9.60;24.70
29777;DHT22;16677;52.224;7.484;2023-03-12T17:21:46;9.60;1.00
29777;DHT22;16677;52.224;7.484;2023-03-12T17:24:14;9.60;99.90
29777;DHT22;16677;52.224;7.484;2023-03-12T17:26:42;9.60;99.90
29777;DHT22;16677;52.224;7.484;2023-03-12T17:29:13;9.60;1.00
29777;DHT22;16677;52.224;7.484;2023-03-12T17:31:41;9.50;99.90
29777;DHT22;16677;52.224;7.484;2023-03-12T17:34:08;9.50;99.90
29777;DHT22;16677;52.224;7.484;2023-03-12T17:36:36;9.60;99.90
29777;DHT22;16677;52.224;7.484;2023-03-12T17:39:03;9.60;1.00
29777;DHT22;16677;52.224;7.484;2023-03-12T17:41:32;9.90;99.90
29777;DHT22;16677;52.224;7.484;2023-03-12T17:43:59;9.60;18.80
29777;DHT22;16677;52.224;7.484;2023-03-12T17:46:28;9.70;1.00
29777;DHT22;16677;52.224;7.484;2023-03-12T17:48:56;9.60;1.00
29777;DHT22;16677;52.224;7.484;2023-03-12T17:51:24;9.70;1.00
29777;DHT22;16677;52.224;7.484;2023-03-12T17:53:51;9.70;1.00
29777;DHT22;16677;52.224;7.484;2023-03-12T17:56:19;9.60;1.00
29777;DHT22;16677;52.224;7.484;2023-03-12T17:58:47;9.60;1.00
29777;DHT22;16677;52.224;7.484;2023-03-12T18:01:15;9.60;23.60
29777;DHT22;16677;52.224;7.484;2023-03-12T18:03:43;9.70;1.00
29777;DHT22;16677;52.224;7.484;2023-03-12T18:06:11;9.70;1.00
29777;DHT22;16677;52.224;7.484;2023-03-12T18:08:38;9.70;1.00
29777;DHT22;16677;52.224;7.484;2023-03-12T18:11:06;9.70;1.00
29777;DHT22;16677;52.224;7.484;2023-03-12T18:13:34;9.70;99.90
29777;DHT22;16677;52.224;7.484;2023-03-12T18:16:06;9.70;99.90
29777;DHT22;16677;52.224;7.484;2023-03-12T18:18:33;9.70;1.00
29777;DHT22;16677;52.224;7.484;2023-03-12T18:21:01;9.80;1.00
29777;DHT22;16677;52.224;7.484;2023-03-12T18:23:28;9.80;1.00
29777;DHT22;16677;52.224;7.484;2023-03-12T18:25:55;9.90;1.00
29777;DHT22;16677;52.224;7.484;2023-03-12T18:28:22;9.90;1.00
29777;DHT22;16677;52.224;7.484;2023-03-12T18:30:50;9.90;1.00
29777;DHT22;16677;52.224;7.484;2023-03-12T18:33:17;9.90;1.00